Time,TemperatureF,DewpointF,PressureIn,WindDirection,WindDirectionDegrees,WindSpeedMPH,WindSpeedGustMPH,Humidity,HourlyPrecipIn,Conditions,Clouds,dailyrainin,SoftwareType,DateUTC
2013-09-23 00:07:00,-999.0,-99.9,29.89,North,-999,-999.0,-999.0,-999,-99.99,,,0.00,weatherlink.com 1.10,2013-09-23 05:07:00,
2013-09-23 00:22:00,-999.0,-99.9,29.89,North,-999,-999.0,-999.0,-999,-99.99,,,0.00,weatherlink.com 1.10,2013-09-23 05:22:00,
2013-09-23 00:37:00,-999.0,-99.9,29.90,North,-999,-999.0,-999.0,-999,-99.99,,,0.00,weatherlink.com 1.10,2013-09-23 05:37:00,
2013-09-23 00:52:00,-999.0,-99.9,29.88,North,-999,-999.0,-999.0,-999,-99.99,,,0.00,weatherlink.com 1.10,2013-09-23 05:52:00,
2013-09-23 01:07:00,-999.0,-99.9,29.88,North,-999,-999.0,-999.0,-999,-99.99,,,0.00,weatherlink.com 1.10,2013-09-23 06:07:00,
2013-09-23 01:22:00,-999.0,-99.9,29.89,North,-999,-999.0,-999.0,-999,-99.99,,,0.00,weatherlink.com 1.10,2013-09-23 06:22:00,
2013-09-23 01:37:00,-999.0,-99.9,29.89,North,-999,-999.0,-999.0,-999,-99.99,,,0.00,weatherlink.com 1.10,2013-09-23 06:37:00,
2013-09-23 01:52:00,-999.0,-99.9,29.89,North,-999,-999.0,-999.0,-999,-99.99,,,0.00,weatherlink.com 1.10,2013-09-23 06:52:00,
2013-09-23 02:07:00,-999.0,-99.9,29.89,North,-999,-999.0,-999.0,-999,-99.99,,,0.00,weatherlink.com 1.10,2013-09-23 07:07:00,
2013-09-23 02:22:00,-999.0,-99.9,29.88,North,-999,-999.0,-999.0,-999,-99.99,,,0.00,weatherlink.com 1.10,2013-09-23 07:22:00,
2013-09-23 02:37:00,-999.0,-99.9,29.88,North,-999,-999.0,-999.0,-999,-99.99,,,0.00,weatherlink.com 1.10,2013-09-23 07:37:00,
2013-09-23 02:52:00,-999.0,-99.9,29.88,North,-999,-999.0,-999.0,-999,-99.99,,,0.00,weatherlink.com 1.10,2013-09-23 07:52:00,
2013-09-23 03:07:00,-999.0,-99.9,29.88,North,-999,-999.0,-999.0,-999,-99.99,,,0.00,weatherlink.com 1.10,2013-09-23 08:07:00,
2013-09-23 03:22:00,-999.0,-99.9,29.88,North,-999,-999.0,-999.0,-999,-99.99,,,0.00,weatherlink.com 1.10,2013-09-23 08:22:00,
2013-09-23 03:38:00,-999.0,-99.9,29.87,North,-999,-999.0,-999.0,-999,-99.99,,,0.00,weatherlink.com 1.10,2013-09-23 08:38:00,
2013-09-23 03:53:00,-999.0,-99.9,29.86,North,-999,-999.0,-999.0,-999,-99.99,,,0.00,weatherlink.com 1.10,2013-09-23 08:53:00,
2013-09-23 04:08:00,-999.0,-99.9,29.86,North,-999,-999.0,-999.0,-999,-99.99,,,0.00,weatherlink.com 1.10,2013-09-23 09:08:00,
2013-09-23 04:23:00,-999.0,-99.9,29.86,North,-999,-999.0,-999.0,-999,-99.99,,,0.00,weatherlink.com 1.10,2013-09-23 09:23:00,
2013-09-23 04:38:00,-999.0,-99.9,29.86,North,-999,-999.0,-999.0,-999,-99.99,,,0.00,weatherlink.com 1.10,2013-09-23 09:38:00,
2013-09-23 04:53:00,-999.0,-99.9,29.86,North,-999,-999.0,-999.0,-999,-99.99,,,0.00,weatherlink.com 1.10,2013-09-23 09:53:00,
2013-09-23 05:08:00,-999.0,-99.9,29.86,North,-999,-999.0,-999.0,-999,-99.99,,,0.00,weatherlink.com 1.10,2013-09-23 10:08:00,
2013-09-23 05:23:00,-999.0,-99.9,29.86,North,-999,-999.0,-999.0,-999,-99.99,,,0.00,weatherlink.com 1.10,2013-09-23 10:23:00,
2013-09-23 05:38:00,-999.0,-99.9,29.86,North,-999,-999.0,-999.0,-999,-99.99,,,0.00,weatherlink.com 1.10,2013-09-23 10:38:00,
2013-09-23 05:53:00,-999.0,-99.9,29.87,North,-999,-999.0,-999.0,-999,-99.99,,,0.00,weatherlink.com 1.10,2013-09-23 10:53:00,
2013-09-23 06:08:00,-999.0,-99.9,29.86,North,-999,-999.0,-999.0,-999,-99.99,,,0.00,weatherlink.com 1.10,2013-09-23 11:08:00,
2013-09-23 06:23:00,-999.0,-99.9,29.87,North,-999,-999.0,-999.0,-999,-99.99,,,0.00,weatherlink.com 1.10,2013-09-23 11:23:00,
2013-09-23 06:38:00,-999.0,-99.9,29.87,North,-999,-999.0,-999.0,-999,-99.99,,,0.00,weatherlink.com 1.10,2013-09-23 11:38:00,
2013-09-23 06:53:00,-999.0,-99.9,29.92,North,-999,-999.0,-999.0,-999,-99.99,,,0.00,weatherlink.com 1.10,2013-09-23 11:53:00,
2013-09-23 07:09:00,-999.0,-99.9,29.93,North,-999,-999.0,-999.0,-999,-99.99,,,0.00,weatherlink.com 1.10,2013-09-23 12:09:00,
2013-09-23 07:24:00,-999.0,-99.9,29.93,North,-999,-999.0,-999.0,-999,-99.99,,,0.00,weatherlink.com 1.10,2013-09-23 12:24:00,
2013-09-23 07:39:00,-999.0,-99.9,29.93,North,-999,-999.0,-999.0,-999,-99.99,,,0.00,weatherlink.com 1.10,2013-09-23 12:39:00,
2013-09-23 07:54:00,49.6,47.0,29.95,ESE,117,0.0,-999.0,92,-99.99,,,0.00,weatherlink.com 1.10,2013-09-23 12:54:00,
2013-09-23 08:09:00,51.9,50.0,29.97,ESE,117,0.0,-999.0,92,-99.99,,,0.00,weatherlink.com 1.10,2013-09-23 13:09:00,
2013-09-23 08:24:00,53.5,51.0,29.96,SE,128,0.0,-999.0,91,-99.99,,,0.00,weatherlink.com 1.10,2013-09-23 13:24:00,
2013-09-23 08:39:00,55.6,52.0,29.96,SE,128,0.0,-999.0,87,-99.99,,,0.00,weatherlink.com 1.10,2013-09-23 13:39:00,
2013-09-23 08:54:00,57.8,53.0,29.96,SE,128,0.0,-999.0,84,-99.99,,,0.00,weatherlink.com 1.10,2013-09-23 13:54:00,
2013-09-23 09:09:00,61.5,54.0,29.96,SE,128,0.0,-999.0,75,-99.99,,,0.00,weatherlink.com 1.10,2013-09-23 14:09:00,
2013-09-23 09:24:00,64.3,55.0,29.95,SE,128,0.0,-999.0,73,-99.99,,,0.00,weatherlink.com 1.10,2013-09-23 14:24:00,
2013-09-23 09:39:00,66.8,55.0,29.94,SE,128,0.0,-999.0,65,-99.99,,,0.00,weatherlink.com 1.10,2013-09-23 14:39:00,
2013-09-23 09:54:00,70.3,55.0,29.94,SE,128,0.0,-999.0,59,-99.99,,,0.00,weatherlink.com 1.10,2013-09-23 14:54:00,
2013-09-23 10:09:00,72.0,55.0,29.93,SE,128,0.0,-999.0,55,-99.99,,,0.00,weatherlink.com 1.10,2013-09-23 15:09:00,
2013-09-23 10:24:00,75.1,57.0,29.93,SE,128,0.0,-999.0,53,-99.99,,,0.00,weatherlink.com 1.10,2013-09-23 15:24:00,
2013-09-23 10:39:00,76.7,56.0,29.92,SE,128,0.0,-999.0,49,-99.99,,,0.00,weatherlink.com 1.10,2013-09-23 15:39:00,
2013-09-23 10:55:00,78.8,56.0,29.92,SSE,165,0.0,-999.0,46,-99.99,,,0.00,weatherlink.com 1.10,2013-09-23 15:55:00,
2013-09-23 11:10:00,79.0,54.0,29.91,West,261,0.0,-999.0,42,-99.99,,,0.00,weatherlink.com 1.10,2013-09-23 16:10:00,
2013-09-23 11:25:00,78.6,53.0,29.90,SSW,199,0.0,-999.0,41,-99.99,,,0.00,weatherlink.com 1.10,2013-09-23 16:25:00,
2013-09-23 11:40:00,79.9,54.0,29.90,SSW,192,0.0,-999.0,41,-99.99,,,0.00,weatherlink.com 1.10,2013-09-23 16:40:00,
2013-09-23 11:55:00,82.0,54.0,29.90,West,266,0.0,-999.0,38,-99.99,,,0.00,weatherlink.com 1.10,2013-09-23 16:55:00,
2013-09-23 12:10:00,81.6,53.0,29.90,West,260,0.0,-999.0,37,-99.99,,,0.00,weatherlink.com 1.10,2013-09-23 17:10:00,
2013-09-23 12:25:00,82.6,52.0,29.90,West,269,0.0,-999.0,35,-99.99,,,0.00,weatherlink.com 1.10,2013-09-23 17:25:00,
2013-09-23 12:40:00,83.2,53.0,29.89,South,184,0.0,-999.0,35,-99.99,,,0.00,weatherlink.com 1.10,2013-09-23 17:40:00,
2013-09-23 12:55:00,83.4,52.0,29.88,North,11,0.0,-999.0,34,-99.99,,,0.00,weatherlink.com 1.10,2013-09-23 17:55:00,
2013-09-23 13:10:00,85.1,51.0,29.87,WSW,250,0.0,-999.0,31,-99.99,,,0.00,weatherlink.com 1.10,2013-09-23 18:10:00,
2013-09-23 13:25:00,82.8,52.0,29.87,SSE,147,0.0,-999.0,34,-99.99,,,0.00,weatherlink.com 1.10,2013-09-23 18:25:00,
2013-09-23 13:40:00,83.8,51.0,29.87,SW,236,0.0,-999.0,32,-99.99,,,0.00,weatherlink.com 1.10,2013-09-23 18:40:00,
2013-09-23 13:55:00,84.7,48.0,29.86,North,5,0.0,-999.0,28,-99.99,,,0.00,weatherlink.com 1.10,2013-09-23 18:55:00,
2013-09-23 14:10:00,85.9,49.0,29.85,South,184,0.0,-999.0,28,-99.99,,,0.00,weatherlink.com 1.10,2013-09-23 19:10:00,
2013-09-23 14:25:00,86.5,46.0,29.84,NW,306,0.0,-999.0,24,-99.99,,,0.00,weatherlink.com 1.10,2013-09-23 19:25:00,
2013-09-23 14:40:00,88.2,47.0,29.84,SW,235,0.0,-999.0,24,-99.99,,,0.00,weatherlink.com 1.10,2013-09-23 19:40:00,
2013-09-23 14:55:00,88.0,46.0,29.83,WNW,285,0.0,-999.0,23,-99.99,,,0.00,weatherlink.com 1.10,2013-09-23 19:55:00,
2013-09-23 15:10:00,87.0,46.0,29.83,West,265,0.0,-999.0,24,-99.99,,,0.00,weatherlink.com 1.10,2013-09-23 20:10:00,
2013-09-23 15:25:00,87.8,46.0,29.82,SW,227,0.0,-999.0,23,-99.99,,,0.00,weatherlink.com 1.10,2013-09-23 20:25:00,
2013-09-23 15:40:00,86.1,44.0,29.82,SSW,194,0.0,-999.0,23,-99.99,,,0.00,weatherlink.com 1.10,2013-09-23 20:40:00,
2013-09-23 15:55:00,87.2,44.0,29.82,SSW,194,0.0,-999.0,22,-99.99,,,0.00,weatherlink.com 1.10,2013-09-23 20:55:00,
2013-09-23 16:10:00,86.7,45.0,29.81,SW,228,0.0,-999.0,23,-99.99,,,0.00,weatherlink.com 1.10,2013-09-23 21:10:00,
2013-09-23 16:25:00,86.7,47.0,29.81,West,263,0.0,-999.0,25,-99.99,,,0.00,weatherlink.com 1.10,2013-09-23 21:25:00,
2013-09-23 16:40:00,87.0,47.0,29.81,SSW,195,0.0,-999.0,25,-99.99,,,0.00,weatherlink.com 1.10,2013-09-23 21:40:00,
2013-09-23 16:55:00,86.3,48.0,29.81,South,173,0.0,-999.0,26,-99.99,,,0.00,weatherlink.com 1.10,2013-09-23 21:55:00,
2013-09-23 17:10:00,87.6,48.0,29.80,WSW,247,0.0,-999.0,25,-99.99,,,0.00,weatherlink.com 1.10,2013-09-23 22:10:00,
2013-09-23 17:25:00,87.0,46.0,29.80,South,181,0.0,-999.0,24,-99.99,,,0.00,weatherlink.com 1.10,2013-09-23 22:25:00,
2013-09-23 17:40:00,88.0,47.0,29.80,SSW,211,0.0,-999.0,24,-99.99,,,0.00,weatherlink.com 1.10,2013-09-23 22:40:00,
2013-09-23 17:55:00,87.8,48.0,29.80,SSW,205,0.0,-999.0,25,-99.99,,,0.00,weatherlink.com 1.10,2013-09-23 22:55:00,
2013-09-23 18:10:00,86.5,46.0,29.80,SSW,211,0.0,-999.0,24,-99.99,,,0.00,weatherlink.com 1.10,2013-09-23 23:10:00,
2013-09-23 18:25:00,85.7,50.0,29.80,SSW,206,0.0,-999.0,29,-99.99,,,0.00,weatherlink.com 1.10,2013-09-23 23:25:00,
2013-09-23 18:40:00,85.5,50.0,29.81,SSE,165,0.0,-999.0,29,-99.99,,,0.00,weatherlink.com 1.10,2013-09-23 23:40:00,
2013-09-23 18:55:00,84.7,49.0,29.81,SSE,167,0.0,-999.0,29,-99.99,,,0.00,weatherlink.com 1.10,2013-09-23 23:55:00,
2013-09-23 19:10:00,83.4,51.0,29.81,SSE,161,0.0,-999.0,32,-99.99,,,0.00,weatherlink.com 1.10,2013-09-24 00:10:00,
2013-09-23 19:25:00,-999.0,-99.9,29.82,North,-999,-999.0,-999.0,-999,-99.99,,,0.00,weatherlink.com 1.10,2013-09-24 00:25:00,
2013-09-23 19:40:00,-999.0,-99.9,29.88,North,-999,-999.0,-999.0,-999,-99.99,,,0.00,weatherlink.com 1.10,2013-09-24 00:40:00,
2013-09-23 19:55:00,-999.0,-99.9,29.90,North,-999,-999.0,-999.0,-999,-99.99,,,0.00,weatherlink.com 1.10,2013-09-24 00:55:00,
2013-09-23 20:10:00,-999.0,-99.9,29.90,North,-999,-999.0,-999.0,-999,-99.99,,,0.00,weatherlink.com 1.10,2013-09-24 01:10:00,
2013-09-23 20:25:00,-999.0,-99.9,29.91,North,-999,-999.0,-999.0,-999,-99.99,,,0.00,weatherlink.com 1.10,2013-09-24 01:25:00,
2013-09-23 20:40:00,-999.0,-99.9,29.91,North,-999,-999.0,-999.0,-999,-99.99,,,0.00,weatherlink.com 1.10,2013-09-24 01:40:00,
2013-09-23 20:56:00,-999.0,-99.9,29.89,North,-999,-999.0,-999.0,-999,-99.99,,,0.00,weatherlink.com 1.10,2013-09-24 01:56:00,
2013-09-23 21:11:00,-999.0,-99.9,29.90,North,-999,-999.0,-999.0,-999,-99.99,,,0.00,weatherlink.com 1.10,2013-09-24 02:11:00,
2013-09-23 21:26:00,-999.0,-99.9,29.90,North,-999,-999.0,-999.0,-999,-99.99,,,0.00,weatherlink.com 1.10,2013-09-24 02:26:00,
2013-09-23 21:41:00,-999.0,-99.9,29.92,North,-999,-999.0,-999.0,-999,-99.99,,,0.00,weatherlink.com 1.10,2013-09-24 02:41:00,
2013-09-23 21:56:00,-999.0,-99.9,29.89,North,-999,-999.0,-999.0,-999,-99.99,,,0.00,weatherlink.com 1.10,2013-09-24 02:56:00,
2013-09-23 22:11:00,-999.0,-99.9,29.90,North,-999,-999.0,-999.0,-999,-99.99,,,0.00,weatherlink.com 1.10,2013-09-24 03:11:00,
2013-09-23 22:26:00,-999.0,-99.9,29.90,North,-999,-999.0,-999.0,-999,-99.99,,,0.00,weatherlink.com 1.10,2013-09-24 03:26:00,
2013-09-23 22:41:00,-999.0,-99.9,29.91,North,-999,-999.0,-999.0,-999,-99.99,,,0.00,weatherlink.com 1.10,2013-09-24 03:41:00,
2013-09-23 22:56:00,-999.0,-99.9,29.90,North,-999,-999.0,-999.0,-999,-99.99,,,0.00,weatherlink.com 1.10,2013-09-24 03:56:00,
2013-09-23 23:11:00,-999.0,-99.9,29.90,North,-999,-999.0,-999.0,-999,-99.99,,,0.00,weatherlink.com 1.10,2013-09-24 04:11:00,
2013-09-23 23:26:00,-999.0,-99.9,29.91,North,-999,-999.0,-999.0,-999,-99.99,,,0.00,weatherlink.com 1.10,2013-09-24 04:26:00,
2013-09-23 23:41:00,-999.0,-99.9,29.91,North,-999,-999.0,-999.0,-999,-99.99,,,0.00,weatherlink.com 1.10,2013-09-24 04:41:00,
2013-09-23 23:56:00,-999.0,-99.9,29.91,North,-999,-999.0,-999.0,-999,-99.99,,,0.00,weatherlink.com 1.10,2013-09-24 04:56:00,